createdAt,value
2022-10-23T00:01:12.021Z,14.80
2022-10-23T00:03:39.524Z,15.00
2022-10-23T00:06:06.977Z,15.68
2022-10-23T00:08:34.488Z,14.82
2022-10-23T00:11:12.225Z,15.40
2022-10-23T00:13:40.008Z,15.40
2022-10-23T00:16:10.582Z,15.02
2022-10-23T00:18:38.479Z,14.82
2022-10-23T00:21:06.805Z,15.63
2022-10-23T00:23:34.288Z,15.70
2022-10-23T00:26:01.809Z,15.48
2022-10-23T00:28:32.297Z,15.60
2022-10-23T00:31:03.162Z,15.35
2022-10-23T00:33:30.568Z,16.52
2022-10-23T00:35:57.880Z,14.90
2022-10-23T00:38:25.406Z,15.73
2022-10-23T00:40:52.876Z,16.48
2022-10-23T00:43:20.881Z,17.95
2022-10-23T00:45:48.515Z,15.27
2022-10-23T00:48:16.315Z,17.25
2022-10-23T00:50:43.685Z,16.13
2022-10-23T00:53:11.211Z,16.02
2022-10-23T00:55:39.280Z,17.25
2022-10-23T00:58:06.587Z,16.80
2022-10-23T01:00:42.778Z,17.00
2022-10-23T01:03:10.189Z,14.93
2022-10-23T01:05:43.037Z,16.67
2022-10-23T01:08:17.771Z,16.63
2022-10-23T01:10:47.970Z,16.25
2022-10-23T01:13:29.892Z,17.17
2022-10-23T01:16:06.610Z,16.52
2022-10-23T01:21:24.591Z,17.15
2022-10-23T01:23:51.887Z,18.48
2022-10-23T01:26:27.494Z,16.85
2022-10-23T01:29:01.465Z,16.15
2022-10-23T01:31:33.297Z,16.25
2022-10-23T01:34:04.439Z,16.52
2022-10-23T01:36:34.334Z,16.95
2022-10-23T01:39:09.469Z,15.73
2022-10-23T01:41:48.722Z,16.42
2022-10-23T01:44:27.241Z,17.75
2022-10-23T01:46:55.750Z,16.75
2022-10-23T01:49:24.313Z,18.73
2022-10-23T01:51:57.472Z,17.63
2022-10-23T01:54:27.111Z,16.35
2022-10-23T01:59:27.834Z,16.50
2022-10-23T02:01:57.374Z,16.85
2022-10-23T02:06:52.363Z,15.65
2022-10-23T02:09:19.889Z,16.52
2022-10-23T02:12:02.678Z,15.48
2022-10-23T02:14:54.681Z,17.13
2022-10-23T02:17:40.763Z,17.98
2022-10-23T02:20:15.431Z,17.55
2022-10-23T02:22:45.915Z,16.17
2022-10-23T02:25:19.708Z,15.73
2022-10-23T02:27:51.643Z,16.13
2022-10-23T02:30:20.908Z,16.17
2022-10-23T02:32:55.675Z,15.63
2022-10-23T02:35:26.440Z,14.65
2022-10-23T02:38:02.958Z,14.80
2022-10-23T02:40:36.668Z,15.75
2022-10-23T02:43:14.204Z,15.55
2022-10-23T02:45:48.857Z,15.50
2022-10-23T02:48:29.779Z,16.83
2022-10-23T02:51:07.367Z,16.63
2022-10-23T02:53:54.059Z,14.55
2022-10-23T02:56:24.175Z,15.05
2022-10-23T02:58:54.899Z,16.58
2022-10-23T03:01:24.583Z,16.65
2022-10-23T03:06:19.331Z,14.23
2022-10-23T03:08:50.403Z,14.77
2022-10-23T03:11:19.197Z,16.00
2022-10-23T03:13:46.805Z,16.17
2022-10-23T03:16:16.201Z,15.82
2022-10-23T03:18:50.028Z,15.15
2022-10-23T03:21:18.381Z,14.25
2022-10-23T03:23:50.457Z,16.02
2022-10-23T03:26:22.692Z,14.45
2022-10-23T03:28:50.031Z,15.85
2022-10-23T03:31:20.233Z,15.88
2022-10-23T03:33:49.859Z,15.38
2022-10-23T03:36:17.188Z,16.60
2022-10-23T03:38:44.807Z,15.57
2022-10-23T03:41:12.103Z,16.25
2022-10-23T03:43:39.457Z,14.70
2022-10-23T03:46:09.809Z,15.65
2022-10-23T03:48:38.340Z,15.05
2022-10-23T03:51:06.875Z,14.60
2022-10-23T03:53:34.474Z,16.40
2022-10-23T03:56:04.346Z,14.50
2022-10-23T03:58:32.082Z,16.13
2022-10-23T04:01:02.644Z,15.43
2022-10-23T04:03:30.106Z,15.80
2022-10-23T04:05:57.615Z,16.52
2022-10-23T04:08:25.199Z,15.35
2022-10-23T04:13:31.188Z,15.95
2022-10-23T04:15:58.817Z,14.98
2022-10-23T04:18:26.096Z,16.35
2022-10-23T04:20:53.540Z,15.18
2022-10-23T04:23:20.946Z,16.50
2022-10-23T04:28:15.994Z,15.45
2022-10-23T04:30:43.444Z,15.23
2022-10-23T04:35:40.186Z,14.43
2022-10-23T04:38:10.508Z,14.38
2022-10-23T04:40:38.378Z,14.00
2022-10-23T04:43:05.874Z,14.35
2022-10-23T04:45:37.580Z,14.70
2022-10-23T04:48:07.886Z,14.75
2022-10-23T04:50:58.107Z,14.93
2022-10-23T04:53:40.210Z,14.15
2022-10-23T04:56:16.779Z,14.40
2022-10-23T04:58:49.661Z,15.40
2022-10-23T05:01:17.344Z,15.82
2022-10-23T05:03:44.817Z,15.15
2022-10-23T05:06:12.414Z,15.35
2022-10-23T05:09:06.701Z,13.77
2022-10-23T05:11:55.056Z,13.48
2022-10-23T05:14:22.965Z,14.50
2022-10-23T05:16:56.598Z,14.23
2022-10-23T05:19:27.880Z,13.88
2022-10-23T05:21:56.247Z,14.32
2022-10-23T05:24:30.635Z,15.73
2022-10-23T05:27:01.257Z,14.57
2022-10-23T05:29:31.392Z,13.32
2022-10-23T05:34:31.918Z,12.73
2022-10-23T05:37:01.660Z,14.27
2022-10-23T05:39:32.099Z,12.25
2022-10-23T05:42:01.786Z,14.65
2022-10-23T05:44:29.255Z,12.80
2022-10-23T05:49:55.297Z,14.43
2022-10-23T05:52:25.385Z,12.90
2022-10-23T05:55:11.214Z,12.93
2022-10-23T05:58:03.755Z,13.48
2022-10-23T06:01:08.709Z,15.18
2022-10-23T06:03:55.945Z,14.63
2022-10-23T06:06:29.920Z,10.77
2022-10-23T06:08:57.330Z,11.20
2022-10-23T06:11:24.975Z,12.65
2022-10-23T06:14:03.694Z,11.77
2022-10-23T06:16:32.063Z,11.25
2022-10-23T06:19:00.340Z,10.98
2022-10-23T06:21:28.843Z,11.45
2022-10-23T06:23:56.870Z,11.77
2022-10-23T06:26:30.571Z,10.90
2022-10-23T06:29:09.886Z,10.52
2022-10-23T06:31:38.530Z,10.35
2022-10-23T06:34:09.446Z,10.77
2022-10-23T06:36:38.108Z,10.35
2022-10-23T06:39:15.866Z,9.93
2022-10-23T06:42:06.503Z,10.90
2022-10-23T06:44:52.633Z,10.93
2022-10-23T06:47:51.814Z,11.70
2022-10-23T06:50:38.902Z,10.05
2022-10-23T06:53:22.432Z,10.00
2022-10-23T06:56:00.851Z,9.27
2022-10-23T06:58:28.850Z,11.18
2022-10-23T07:01:05.538Z,10.52
2022-10-23T07:03:34.735Z,11.70
2022-10-23T07:06:06.612Z,10.85
2022-10-23T07:08:34.044Z,9.40
2022-10-23T07:11:08.150Z,10.40
2022-10-23T07:13:36.433Z,10.23
2022-10-23T07:16:19.212Z,9.30
2022-10-23T07:18:47.131Z,9.00
2022-10-23T07:21:41.020Z,10.30
2022-10-23T07:24:23.196Z,10.20
2022-10-23T07:29:21.375Z,10.18
2022-10-23T07:31:49.298Z,9.65
2022-10-23T07:34:36.827Z,8.95
2022-10-23T07:37:24.564Z,9.43
2022-10-23T07:39:51.998Z,8.60
2022-10-23T07:42:19.462Z,9.38
2022-10-23T07:44:46.964Z,8.73
2022-10-23T07:47:14.359Z,9.68
2022-10-23T07:49:45.493Z,9.70
2022-10-23T07:52:13.181Z,9.65
2022-10-23T07:55:00.465Z,9.65
2022-10-23T07:57:33.079Z,8.73
2022-10-23T08:00:12.088Z,9.48
2022-10-23T08:02:42.311Z,8.10
2022-10-23T08:07:49.813Z,8.90
2022-10-23T08:10:18.053Z,9.38
2022-10-23T08:12:46.308Z,8.55
2022-10-23T08:15:16.810Z,9.68
2022-10-23T08:18:00.019Z,9.63
2022-10-23T08:20:46.173Z,9.50
2022-10-23T08:23:18.533Z,8.70
2022-10-23T08:28:16.672Z,7.27
2022-10-23T08:30:53.819Z,9.10
2022-10-23T08:33:21.707Z,9.15
2022-10-23T08:35:52.331Z,9.43
2022-10-23T08:38:28.792Z,9.40
2022-10-23T08:40:56.353Z,9.88
2022-10-23T08:43:47.583Z,8.18
2022-10-23T08:46:26.417Z,10.10
2022-10-23T08:49:32.422Z,8.25
2022-10-23T08:52:14.241Z,8.00
2022-10-23T08:55:01.273Z,8.10
2022-10-23T08:57:33.657Z,8.73
2022-10-23T09:00:06.749Z,8.65
2022-10-23T09:02:34.353Z,8.15
2022-10-23T09:05:01.848Z,7.82
2022-10-23T09:07:55.596Z,8.13
2022-10-23T09:10:35.367Z,8.25
2022-10-23T09:13:14.635Z,8.77
2022-10-23T09:15:53.274Z,8.27
2022-10-23T09:18:20.595Z,7.60
2022-10-23T09:20:48.400Z,8.80
2022-10-23T09:23:17.678Z,9.02
2022-10-23T09:25:48.763Z,8.18
2022-10-23T09:28:26.457Z,8.02
2022-10-23T09:31:09.042Z,7.78
2022-10-23T09:33:37.366Z,8.02
2022-10-23T09:36:06.338Z,7.55
2022-10-23T09:38:35.171Z,7.40
2022-10-23T09:41:17.436Z,6.30
2022-10-23T09:43:45.748Z,7.43
2022-10-23T09:46:16.259Z,6.47
2022-10-23T09:48:47.779Z,7.82
2022-10-23T09:51:19.537Z,6.90
2022-10-23T09:53:49.898Z,7.65
2022-10-23T09:56:29.482Z,7.35
2022-10-23T10:01:28.749Z,5.90
2022-10-23T10:04:06.461Z,6.88
2022-10-23T10:06:35.040Z,6.30
2022-10-23T10:09:08.580Z,6.50
2022-10-23T10:11:41.344Z,8.98
2022-10-23T10:14:29.048Z,6.47
2022-10-23T10:17:02.157Z,6.07
2022-10-23T10:19:41.874Z,6.63
2022-10-23T10:22:24.577Z,6.65
2022-10-23T10:24:51.990Z,5.82
2022-10-23T10:27:21.647Z,5.70
2022-10-23T10:32:36.991Z,6.53
2022-10-23T10:35:23.128Z,5.88
2022-10-23T10:37:58.955Z,12.63
2022-10-23T10:41:26.137Z,7.07
2022-10-23T10:44:15.438Z,5.50
2022-10-23T10:49:42.258Z,5.55
2022-10-23T10:52:49.235Z,4.95
2022-10-23T10:55:34.744Z,6.28
2022-10-23T10:58:04.854Z,5.75
2022-10-23T11:00:48.323Z,5.40
2022-10-23T11:03:39.952Z,5.95
2022-10-23T11:06:13.850Z,4.57
2022-10-23T11:08:57.605Z,5.85
2022-10-23T11:11:47.469Z,5.95
2022-10-23T11:14:27.005Z,5.07
2022-10-23T11:17:03.290Z,6.05
2022-10-23T11:20:04.610Z,6.13
2022-10-23T11:22:46.849Z,5.18
2022-10-23T11:25:38.746Z,5.00
2022-10-23T11:28:34.706Z,5.05
2022-10-23T11:31:19.570Z,4.90
2022-10-23T11:33:49.127Z,4.68
2022-10-23T11:36:35.898Z,5.03
2022-10-23T11:39:42.110Z,4.85
2022-10-23T11:42:12.128Z,5.30
2022-10-23T11:44:48.279Z,5.28
2022-10-23T11:47:39.349Z,6.38
2022-10-23T11:50:07.691Z,6.43
2022-10-23T11:53:09.202Z,7.20
2022-10-23T11:56:03.106Z,4.40
2022-10-23T11:58:46.719Z,4.97
2022-10-23T12:01:19.075Z,5.57
2022-10-23T12:03:51.658Z,7.85
2022-10-23T12:06:22.963Z,4.65
2022-10-23T12:08:52.183Z,4.53
2022-10-23T12:11:32.670Z,7.15
2022-10-23T12:14:00.274Z,5.72
2022-10-23T12:16:37.271Z,4.63
2022-10-23T12:19:37.135Z,6.00
2022-10-23T12:22:12.294Z,4.43
2022-10-23T12:24:45.433Z,7.22
2022-10-23T12:27:18.835Z,6.28
2022-10-23T12:29:59.515Z,4.68
2022-10-23T12:32:30.193Z,4.72
2022-10-23T12:35:00.674Z,5.38
2022-10-23T12:37:36.114Z,4.85
2022-10-23T12:40:18.234Z,4.38
2022-10-23T12:43:00.783Z,4.32
2022-10-23T12:45:32.626Z,5.72
2022-10-23T12:48:08.259Z,6.18
2022-10-23T12:50:35.762Z,5.65
2022-10-23T12:53:13.192Z,5.38
2022-10-23T12:56:02.829Z,4.70
2022-10-23T12:58:46.269Z,5.70
2022-10-23T13:01:23.361Z,5.90
2022-10-23T13:03:56.908Z,5.30
2022-10-23T13:06:40.777Z,4.70
2022-10-23T13:09:17.452Z,4.70
2022-10-23T13:12:00.874Z,4.78
2022-10-23T13:14:33.110Z,5.03
2022-10-23T13:17:03.371Z,5.53
2022-10-23T13:19:36.027Z,5.10
2022-10-23T13:22:17.616Z,5.90
2022-10-23T13:24:46.259Z,5.28
2022-10-23T13:27:35.386Z,5.20
2022-10-23T13:30:06.145Z,5.28
2022-10-23T13:32:42.068Z,5.72
2022-10-23T13:35:22.911Z,5.82
2022-10-23T13:37:51.308Z,5.88
2022-10-23T13:40:29.357Z,5.82
2022-10-23T13:42:57.434Z,5.95
2022-10-23T13:45:25.926Z,6.88
2022-10-23T13:47:53.814Z,5.97
2022-10-23T13:50:21.277Z,5.63
2022-10-23T13:52:48.937Z,6.47
2022-10-23T13:55:20.497Z,6.18
2022-10-23T13:57:50.069Z,5.70
2022-10-23T14:00:29.581Z,5.97
2022-10-23T14:02:57.470Z,4.82
2022-10-23T14:05:26.870Z,5.05
2022-10-23T14:10:26.924Z,4.70
2022-10-23T14:12:55.692Z,4.93
2022-10-23T14:15:30.501Z,5.32
2022-10-23T14:17:59.612Z,9.45
2022-10-23T14:20:30.957Z,6.07
2022-10-23T14:23:03.784Z,4.85
2022-10-23T14:25:35.816Z,5.18
2022-10-23T14:28:06.231Z,5.20
2022-10-23T14:30:53.763Z,5.20
2022-10-23T14:33:23.089Z,5.25
2022-10-23T14:38:26.218Z,4.63
2022-10-23T14:40:54.045Z,5.35
2022-10-23T14:43:22.214Z,5.13
2022-10-23T14:45:52.939Z,4.07
2022-10-23T14:48:20.588Z,4.85
2022-10-23T14:50:49.808Z,4.28
2022-10-23T14:53:18.336Z,3.80
2022-10-23T14:55:45.951Z,4.63
2022-10-23T14:58:15.969Z,3.80
2022-10-23T15:00:43.826Z,4.63
2022-10-23T15:03:13.294Z,4.50
2022-10-23T15:05:52.868Z,5.50
2022-10-23T15:08:25.910Z,4.10
2022-10-23T15:11:06.708Z,6.40
2022-10-23T15:16:09.318Z,4.82
2022-10-23T15:21:11.161Z,4.65
2022-10-23T15:23:49.378Z,4.88
2022-10-23T15:26:25.565Z,16.45
2022-10-23T15:28:58.766Z,7.43
2022-10-23T15:31:46.854Z,6.15
2022-10-23T15:34:21.920Z,5.80
2022-10-23T15:36:53.065Z,5.40
2022-10-23T15:42:19.215Z,7.60
2022-10-23T15:44:53.276Z,6.43
2022-10-23T15:47:23.624Z,5.68
2022-10-23T15:49:54.010Z,5.78
2022-10-23T15:52:21.486Z,5.07
2022-10-23T15:57:34.194Z,4.75
2022-10-23T16:00:04.383Z,5.93
2022-10-23T16:02:41.787Z,4.93
2022-10-23T16:05:12.048Z,4.47
2022-10-23T16:07:39.559Z,4.53
2022-10-23T16:10:30.070Z,4.68
2022-10-23T16:12:57.320Z,4.57
2022-10-23T16:15:32.278Z,4.55
2022-10-23T16:18:09.261Z,4.78
2022-10-23T16:20:43.028Z,4.63
2022-10-23T16:23:13.644Z,4.40
2022-10-23T16:25:43.576Z,5.50
2022-10-23T16:28:13.025Z,5.35
2022-10-23T16:33:17.611Z,4.70
2022-10-23T16:35:52.695Z,5.45
2022-10-23T16:38:23.227Z,4.75
2022-10-23T16:40:53.429Z,4.68
2022-10-23T16:43:42.996Z,4.57
2022-10-23T16:46:38.287Z,5.15
2022-10-23T16:49:12.202Z,5.70
2022-10-23T16:51:50.453Z,4.55
2022-10-23T16:54:31.328Z,4.53
2022-10-23T16:56:58.981Z,4.15
2022-10-23T16:59:26.863Z,5.05
2022-10-23T17:01:54.611Z,5.28
2022-10-23T17:04:22.082Z,4.97
2022-10-23T17:06:49.599Z,4.88
2022-10-23T17:09:19.355Z,5.53
2022-10-23T17:11:48.279Z,5.90
2022-10-23T17:14:17.652Z,5.50
2022-10-23T17:16:51.835Z,5.53
2022-10-23T17:22:12.644Z,6.03
2022-10-23T17:24:41.001Z,6.00
2022-10-23T17:27:08.522Z,5.68
2022-10-23T17:29:36.282Z,5.38
2022-10-23T17:32:04.237Z,4.57
2022-10-23T17:34:31.935Z,4.72
2022-10-23T17:37:10.226Z,4.28
2022-10-23T17:39:37.671Z,5.13
2022-10-23T17:42:05.260Z,4.68
2022-10-23T17:44:41.565Z,5.00
2022-10-23T17:50:19.612Z,5.45
2022-10-23T17:52:48.290Z,5.22
2022-10-23T17:55:19.033Z,5.43
2022-10-23T17:57:47.867Z,5.22
2022-10-23T18:00:16.256Z,3.80
2022-10-23T18:02:43.862Z,4.95
2022-10-23T18:05:11.335Z,5.03
2022-10-23T18:07:38.866Z,4.55
2022-10-23T18:10:06.396Z,4.97
2022-10-23T18:12:34.151Z,4.10
2022-10-23T18:15:01.713Z,4.05
2022-10-23T18:17:29.197Z,4.32
2022-10-23T18:20:01.648Z,4.70
2022-10-23T18:22:30.380Z,4.15
2022-10-23T18:24:58.078Z,4.30
2022-10-23T18:27:25.653Z,5.00
2022-10-23T18:29:54.243Z,4.53
2022-10-23T18:32:22.461Z,4.57
2022-10-23T18:34:51.128Z,4.68
2022-10-23T18:37:18.695Z,4.50
2022-10-23T18:39:46.136Z,5.90
2022-10-23T18:42:19.103Z,4.60
2022-10-23T18:44:50.089Z,6.65
2022-10-23T18:47:17.654Z,4.65
2022-10-23T18:49:45.206Z,4.80
2022-10-23T18:52:12.831Z,5.93
2022-10-23T18:54:43.191Z,4.70
2022-10-23T18:57:10.723Z,6.82
2022-10-23T18:59:38.120Z,5.70
2022-10-23T19:02:05.789Z,5.60
2022-10-23T19:04:35.622Z,6.70
2022-10-23T19:09:48.296Z,6.07
2022-10-23T19:12:16.391Z,5.97
2022-10-23T19:14:43.791Z,6.10
2022-10-23T19:17:19.611Z,6.03
2022-10-23T19:19:50.490Z,4.32
2022-10-23T19:22:17.917Z,3.17
2022-10-23T19:24:47.698Z,2.70
2022-10-23T19:27:15.302Z,3.00
2022-10-23T19:29:45.307Z,3.35
2022-10-23T19:32:12.917Z,2.80
2022-10-23T19:34:40.235Z,2.45
2022-10-23T19:37:07.825Z,2.78
2022-10-23T19:39:35.320Z,3.28
2022-10-23T19:42:02.947Z,2.33
2022-10-23T19:44:30.329Z,3.08
2022-10-23T19:46:57.649Z,3.10
2022-10-23T19:49:25.057Z,6.22
2022-10-23T19:51:52.458Z,3.15
2022-10-23T19:54:20.917Z,3.05
2022-10-23T19:56:48.607Z,3.75
2022-10-23T19:59:16.162Z,6.93
2022-10-23T20:01:46.368Z,3.10
2022-10-23T20:04:17.098Z,4.43
2022-10-23T20:06:44.378Z,4.13
2022-10-23T20:09:11.915Z,3.08
2022-10-23T20:11:40.174Z,5.10
2022-10-23T20:14:08.007Z,5.82
2022-10-23T20:16:36.951Z,3.67
2022-10-23T20:19:09.286Z,3.90
2022-10-23T20:21:37.654Z,3.40
2022-10-23T20:24:05.259Z,4.68
2022-10-23T20:26:32.694Z,4.93
2022-10-23T20:29:03.150Z,4.35
2022-10-23T20:31:32.084Z,3.58
2022-10-23T20:34:00.179Z,2.67
2022-10-23T20:36:40.178Z,3.80
2022-10-23T20:39:14.690Z,4.18
2022-10-23T20:41:45.223Z,4.20
2022-10-23T20:44:13.842Z,4.22
2022-10-23T20:46:41.419Z,5.43
2022-10-23T20:49:10.270Z,5.38
2022-10-23T20:51:37.673Z,6.53
2022-10-23T20:54:06.638Z,5.57
2022-10-23T20:56:36.035Z,6.10
2022-10-23T20:59:07.831Z,6.95
2022-10-23T21:01:35.611Z,7.55
2022-10-23T21:04:03.918Z,6.60
2022-10-23T21:06:45.804Z,7.40
2022-10-23T21:09:22.488Z,6.20
2022-10-23T21:11:50.062Z,6.63
2022-10-23T21:14:17.531Z,6.75
2022-10-23T21:16:46.594Z,4.97
2022-10-23T21:19:18.823Z,5.35
2022-10-23T21:21:46.409Z,4.45
2022-10-23T21:24:16.309Z,4.47
2022-10-23T21:26:44.214Z,3.88
2022-10-23T21:29:20.122Z,4.78
2022-10-23T21:31:55.231Z,3.40
2022-10-23T21:34:22.945Z,3.72
2022-10-23T21:37:11.818Z,3.23
2022-10-23T21:39:38.804Z,3.75
2022-10-23T21:42:06.320Z,3.13
2022-10-23T21:44:33.704Z,3.50
2022-10-23T21:47:01.130Z,2.75
2022-10-23T21:49:28.576Z,3.30
2022-10-23T21:51:56.076Z,3.25
2022-10-23T21:54:23.385Z,3.00
2022-10-23T21:56:53.822Z,4.03
2022-10-23T21:59:24.770Z,3.50
2022-10-23T22:01:53.573Z,2.85
2022-10-23T22:04:22.142Z,2.78
2022-10-23T22:06:50.296Z,2.55
2022-10-23T22:09:21.585Z,2.78
2022-10-23T22:11:50.170Z,2.30
2022-10-23T22:14:17.540Z,2.13
2022-10-23T22:16:44.934Z,2.35
2022-10-23T22:19:13.042Z,2.25
2022-10-23T22:21:43.722Z,2.58
2022-10-23T22:24:11.064Z,2.47
2022-10-23T22:26:41.292Z,3.20
2022-10-23T22:29:09.952Z,2.50
2022-10-23T22:31:37.802Z,1.90
2022-10-23T22:34:18.574Z,2.08
2022-10-23T22:36:54.555Z,2.42
2022-10-23T22:39:22.553Z,2.83
2022-10-23T22:41:50.434Z,1.95
2022-10-23T22:44:17.759Z,2.03
2022-10-23T22:46:45.201Z,2.28
2022-10-23T22:49:12.700Z,2.00
2022-10-23T22:51:40.245Z,2.28
2022-10-23T22:54:07.747Z,2.42
2022-10-23T22:56:35.004Z,2.83
2022-10-23T22:59:02.336Z,3.33
2022-10-23T23:01:29.656Z,1.77
2022-10-23T23:04:04.429Z,2.28
2022-10-23T23:06:45.591Z,2.22
2022-10-23T23:09:17.007Z,3.17
2022-10-23T23:11:51.260Z,3.72
2022-10-23T23:14:22.937Z,2.20
2022-10-23T23:16:51.776Z,2.40
2022-10-23T23:19:19.043Z,2.15
2022-10-23T23:21:46.319Z,2.92
2022-10-23T23:24:13.550Z,2.65
2022-10-23T23:26:40.959Z,3.33
2022-10-23T23:29:08.472Z,2.58
2022-10-23T23:31:36.937Z,2.83
2022-10-23T23:34:04.276Z,3.10
2022-10-23T23:36:31.579Z,3.33
2022-10-23T23:38:59.120Z,3.00
2022-10-23T23:41:27.942Z,2.95
2022-10-23T23:43:56.192Z,3.00
2022-10-23T23:46:23.760Z,2.83
2022-10-23T23:48:51.192Z,3.05
2022-10-23T23:51:19.260Z,4.28
2022-10-23T23:53:50.091Z,3.30
2022-10-23T23:56:17.855Z,3.50
2022-10-23T23:58:45.363Z,3.88
